SLLP/LPB METAR and TAF weather

Enter ICAO airport designator
Station Type Date Time Source
SLLP METAR 2019/05/21 21:00 UTC NOAA

SLLP 212100Z 27010G20KT 250V310 9999 FEW023 BKN200 14/M03 Q1035


Station Type Date Time Source
SLLP Decoded METAR 2019/05/21 21:00 UTC NOAA

La Paz / Alto, Bolivia (SLLP) 16-31S 068-11W 4038M
May 21, 2019 - 05:00 PM EDT / 2019.05.21 2100 UTC
Wind: from the W (270 degrees) at 12 MPH (10 KT) gusting to 23 MPH (20 KT) (direction variable):0
Visibility: greater than 7 mile(s):0
Sky conditions: mostly cloudy
Temperature: 57 F (14 C)
Dew Point: 26 F (-3 C)
Relative Humidity: 30%
Pressure (altimeter): 30.56 in. Hg (1035 hPa)
ob: SLLP 212100Z 27010G20KT 250V310 9999 FEW023 BKN200 14/M03 Q1035
cycle: 21

Station Type Date Time Source
SLLP TAF 2019/05/21 18:36 UTC NOAA

TAF SLLP 211600Z 2118/2218 28012KT 9999 NSC TX15/2120Z TNM02/2210Z
TEMPO 2119/2122 30015G25KT FEW025
BECMG 2123/2201 06005KT PROB30
TEMPO 2206/2210 3000E VCFG FEW003
BECMG 2212/2214 31005KT

Example: see airport list